Time;durP1;ratioP1;P1;durP2;ratioP2;P2;SDS_P1;SDS_P2;PMS_P1;PMS_P2;Temp;Humidity;BMP_temperature;BMP_pressure;BME280_temperature;BME280_humidity;BME280_pressure;Samples;Min_cycle;Max_cycle;Signal;HPM_P1;HPM_P2
2023/08/20 00:01:58;;;;;;;5.82;5.30;;;;;;;;;;5072982;28;20424;-60
2023/08/20 00:04:27;;;;;;;8.00;5.75;;;;;;;;;;5073134;28;20031;-60
2023/08/20 00:06:53;;;;;;;5.72;4.88;;;;;;;;;;5073327;28;20066;-60
2023/08/20 00:09:19;;;;;;;6.65;5.90;;;;;;;;;;5073398;28;20028;-60
2023/08/20 00:11:45;;;;;;;5.47;4.95;;;;;;;;;;5073253;28;20039;-60
2023/08/20 00:14:17;;;;;;;6.50;5.90;;;;;;;;;;5076080;28;20024;-60
2023/08/20 00:16:44;;;;;;;6.90;6.30;;;;;;;;;;5076676;28;20066;-60
2023/08/20 00:19:11;;;;;;;5.20;4.70;;;;;;;;;;5076417;28;20025;-60
2023/08/20 00:21:40;;;;;;;5.38;4.88;;;;;;;;;;5077040;28;20025;-60
2023/08/20 00:24:07;;;;;;;7.13;5.63;;;;;;;;;;5076821;28;20024;-60
2023/08/20 00:26:33;;;;;;;5.70;5.20;;;;;;;;;;5077247;28;20024;-60
2023/08/20 00:28:59;;;;;;;5.20;4.70;;;;;;;;;;5077262;28;20074;-60
2023/08/20 00:31:25;;;;;;;6.45;5.75;;;;;;;;;;5076865;28;20389;-60
2023/08/20 00:33:51;;;;;;;7.63;5.93;;;;;;;;;;5076549;28;20055;-59
2023/08/20 00:36:17;;;;;;;6.28;5.65;;;;;;;;;;5076632;28;20020;-60
2023/08/20 00:38:43;;;;;;;6.03;5.40;;;;;;;;;;5076173;28;20024;-60
2023/08/20 00:41:09;;;;;;;6.35;5.55;;;;;;;;;;5075904;28;20467;-60
2023/08/20 00:43:35;;;;;;;8.10;5.68;;;;;;;;;;5076287;28;20421;-60
2023/08/20 00:46:01;;;;;;;6.78;5.82;;;;;;;;;;5076189;28;20335;-60
2023/08/20 00:48:27;;;;;;;6.97;6.22;;;;;;;;;;5076200;28;20454;-60
2023/08/20 00:50:53;;;;;;;6.55;5.88;;;;;;;;;;5076637;28;20020;-60
2023/08/20 00:53:19;;;;;;;5.57;5.05;;;;;;;;;;5075712;28;20378;-60
2023/08/20 00:55:45;;;;;;;7.13;6.22;;;;;;;;;;5076034;28;20490;-60
2023/08/20 00:58:12;;;;;;;7.20;5.43;;;;;;;;;;5075992;28;20454;-60
2023/08/20 01:00:38;;;;;;;7.30;6.05;;;;;;;;;;5075911;28;20078;-60
2023/08/20 01:03:04;;;;;;;6.35;5.75;;;;;;;;;;5076506;28;20029;-60
2023/08/20 01:05:32;;;;;;;6.53;5.75;;;;;;;;;;5076086;28;20043;-60
2023/08/20 01:08:10;;;;;;;10.07;5.85;;;;;;;;;;5076510;28;20028;-60
2023/08/20 01:10:45;;;;;;;6.22;5.60;;;;;;;;;;5076346;28;20425;-60
2023/08/20 01:13:11;;;;;;;6.93;6.22;;;;;;;;;;5075729;28;20151;-60
2023/08/20 01:15:38;;;;;;;6.50;5.85;;;;;;;;;;5076205;28;20044;-60
2023/08/20 01:18:03;;;;;;;6.35;5.75;;;;;;;;;;5075548;28;20012;-60
2023/08/20 01:20:32;;;;;;;6.72;6.05;;;;;;;;;;5076119;28;20047;-60
2023/08/20 01:23:16;;;;;;;6.78;5.95;;;;;;;;;;5075408;28;20025;-60
2023/08/20 01:25:50;;;;;;;7.63;6.30;;;;;;;;;;5075249;28;20112;-60
2023/08/20 01:28:22;;;;;;;7.47;6.53;;;;;;;;;;5075631;28;20020;-60
2023/08/20 01:30:49;;;;;;;7.55;6.85;;;;;;;;;;5075839;28;20066;-60
2023/08/20 01:33:15;;;;;;;6.93;6.22;;;;;;;;;;5075994;28;20078;-60
2023/08/20 01:35:41;;;;;;;8.60;6.80;;;;;;;;;;5076002;28;20023;-60
2023/08/20 01:38:07;;;;;;;6.82;6.03;;;;;;;;;;5075796;28;20353;-60
2023/08/20 01:40:33;;;;;;;11.30;6.80;;;;;;;;;;5075652;28;20028;-60
2023/08/20 01:42:59;;;;;;;6.80;6.07;;;;;;;;;;5074700;28;20444;-60
2023/08/20 01:45:26;;;;;;;7.30;6.15;;;;;;;;;;5075576;28;20020;-60
2023/08/20 01:47:52;;;;;;;6.43;5.78;;;;;;;;;;5075749;28;20035;-60
2023/08/20 01:50:18;;;;;;;7.43;6.18;;;;;;;;;;5075513;28;20028;-60
2023/08/20 01:52:44;;;;;;;11.13;6.40;;;;;;;;;;5075401;28;20035;-60
2023/08/20 01:55:10;;;;;;;7.28;6.57;;;;;;;;;;5075553;28;20378;-60
2023/08/20 01:57:36;;;;;;;11.23;7.22;;;;;;;;;;5075295;28;20405;-60
2023/08/20 02:00:04;;;;;;;7.20;6.32;;;;;;;;;;5075225;28;20036;-60
2023/08/20 02:02:30;;;;;;;7.38;6.40;;;;;;;;;;5075467;28;20082;-60
2023/08/20 02:04:56;;;;;;;6.28;5.68;;;;;;;;;;5074604;28;20458;-60
2023/08/20 02:07:22;;;;;;;7.25;6.55;;;;;;;;;;5074868;28;20025;-60
2023/08/20 02:09:48;;;;;;;6.65;6.00;;;;;;;;;;5075078;28;20025;-60
2023/08/20 02:12:14;;;;;;;6.93;6.15;;;;;;;;;;5074493;28;20036;-60
2023/08/20 02:14:40;;;;;;;8.40;6.10;;;;;;;;;;5074922;28;20059;-60
2023/08/20 02:17:08;;;;;;;8.27;7.22;;;;;;;;;;5074658;28;20023;-60
2023/08/20 02:19:34;;;;;;;7.07;6.38;;;;;;;;;;5074936;28;20025;-60
2023/08/20 02:22:00;;;;;;;6.43;5.78;;;;;;;;;;5074281;28;20036;-60
2023/08/20 02:24:25;;;;;;;7.50;6.72;;;;;;;;;;5074254;28;20071;-60
2023/08/20 02:26:51;;;;;;;6.32;5.70;;;;;;;;;;5074762;28;20138;-60
2023/08/20 02:29:17;;;;;;;5.93;5.18;;;;;;;;;;5074766;28;20450;-60
2023/08/20 02:31:43;;;;;;;7.25;6.28;;;;;;;;;;5074144;28;20024;-60
2023/08/20 02:34:09;;;;;;;6.68;5.80;;;;;;;;;;5074280;28;20099;-60
2023/08/20 02:36:36;;;;;;;7.65;6.07;;;;;;;;;;5073640;28;20032;-60
2023/08/20 02:39:03;;;;;;;7.07;6.35;;;;;;;;;;5074098;28;20432;-60
2023/08/20 02:41:29;;;;;;;7.35;6.75;;;;;;;;;;5074225;28;20438;-60
2023/08/20 02:43:55;;;;;;;6.90;6.20;;;;;;;;;;5074273;28;20052;-60
2023/08/20 02:46:21;;;;;;;7.28;6.45;;;;;;;;;;5073855;28;20052;-60
2023/08/20 02:48:47;;;;;;;7.93;6.90;;;;;;;;;;5074228;28;20079;-60
2023/08/20 02:51:13;;;;;;;7.88;7.07;;;;;;;;;;5073871;28;20024;-60
2023/08/20 02:53:39;;;;;;;8.90;7.47;;;;;;;;;;5073495;28;20019;-60
2023/08/20 02:56:05;;;;;;;8.45;6.45;;;;;;;;;;5074031;28;20055;-60
2023/08/20 02:58:31;;;;;;;5.75;5.22;;;;;;;;;;5074019;28;20044;-60
2023/08/20 03:00:57;;;;;;;8.70;6.38;;;;;;;;;;5073910;28;20052;-60
2023/08/20 03:03:23;;;;;;;6.18;5.43;;;;;;;;;;5073647;28;20028;-60
2023/08/20 03:05:49;;;;;;;6.90;6.18;;;;;;;;;;5073682;28;20025;-60
2023/08/20 03:08:15;;;;;;;8.10;6.75;;;;;;;;;;5073580;28;20056;-60
2023/08/20 03:10:41;;;;;;;8.02;7.22;;;;;;;;;;5074133;28;20071;-60
2023/08/20 03:13:07;;;;;;;9.80;8.13;;;;;;;;;;5073854;28;20422;-60
2023/08/20 03:15:33;;;;;;;7.47;6.78;;;;;;;;;;5073557;28;20466;-60
2023/08/20 03:17:59;;;;;;;7.97;7.18;;;;;;;;;;5074078;28;20024;-60
2023/08/20 03:20:25;;;;;;;8.13;6.93;;;;;;;;;;5073533;28;20032;-60
2023/08/20 03:22:52;;;;;;;7.47;6.72;;;;;;;;;;5073756;28;20367;-60
2023/08/20 03:25:18;;;;;;;7.95;7.15;;;;;;;;;;5073108;28;20021;-60
2023/08/20 03:27:44;;;;;;;8.23;7.47;;;;;;;;;;5073400;28;20116;-60
2023/08/20 03:30:10;;;;;;;9.75;8.05;;;;;;;;;;5073983;28;20048;-60
2023/08/20 03:32:36;;;;;;;8.32;7.10;;;;;;;;;;5073131;28;20048;-60
2023/08/20 03:35:02;;;;;;;8.38;7.53;;;;;;;;;;5073318;28;20447;-60
2023/08/20 03:37:28;;;;;;;9.15;8.07;;;;;;;;;;5073473;28;20052;-60
2023/08/20 03:39:54;;;;;;;8.55;7.72;;;;;;;;;;5073574;28;20035;-60
2023/08/20 03:42:20;;;;;;;11.20;8.20;;;;;;;;;;5072873;28;20398;-60
2023/08/20 03:44:46;;;;;;;8.02;7.05;;;;;;;;;;5073775;28;20055;-60
2023/08/20 03:47:12;;;;;;;8.45;7.55;;;;;;;;;;5072962;28;20050;-60
2023/08/20 03:49:38;;;;;;;8.20;7.50;;;;;;;;;;5077585;28;20021;-60
2023/08/20 03:52:06;;;;;;;7.68;6.90;;;;;;;;;;5077246;28;20494;-60
2023/08/20 03:54:32;;;;;;;8.88;7.97;;;;;;;;;;5077070;28;20060;-60
2023/08/20 03:56:58;;;;;;;7.63;6.93;;;;;;;;;;5077531;28;20086;-60
2023/08/20 03:59:24;;;;;;;8.57;7.75;;;;;;;;;;5077281;28;20020;-60
2023/08/20 04:01:50;;;;;;;8.70;7.90;;;;;;;;;;5077470;28;20370;-60
2023/08/20 04:04:15;;;;;;;7.47;6.70;;;;;;;;;;5059779;28;20017;-60
2023/08/20 04:06:41;;;;;;;8.85;7.95;;;;;;;;;;5077057;28;20020;-60
2023/08/20 04:09:09;;;;;;;8.75;7.75;;;;;;;;;;5076842;28;20074;-60
2023/08/20 04:11:35;;;;;;;9.00;7.50;;;;;;;;;;5076688;28;20471;-60
2023/08/20 04:14:01;;;;;;;11.23;7.70;;;;;;;;;;5076658;28;20020;-60
2023/08/20 04:16:27;;;;;;;8.35;7.55;;;;;;;;;;5076915;28;20090;-60
2023/08/20 04:18:53;;;;;;;8.93;8.05;;;;;;;;;;5076924;28;20029;-60
2023/08/20 04:21:18;;;;;;;8.15;7.22;;;;;;;;;;5076385;28;20374;-60
2023/08/20 04:23:44;;;;;;;7.97;7.20;;;;;;;;;;5076502;28;20024;-60
2023/08/20 04:26:10;;;;;;;9.38;8.40;;;;;;;;;;5077257;28;20056;-60
2023/08/20 04:28:36;;;;;;;7.72;6.78;;;;;;;;;;5076361;28;20580;-60
2023/08/20 04:31:02;;;;;;;8.82;7.60;;;;;;;;;;5076716;28;20025;-60
2023/08/20 04:33:28;;;;;;;9.15;7.57;;;;;;;;;;5076603;28;20028;-60
2023/08/20 04:35:54;;;;;;;8.05;7.32;;;;;;;;;;5076358;28;20043;-60
2023/08/20 04:38:20;;;;;;;9.13;8.20;;;;;;;;;;5075943;28;20104;-60
2023/08/20 04:40:47;;;;;;;8.05;7.25;;;;;;;;;;5076157;28;20047;-60
2023/08/20 04:43:13;;;;;;;7.72;6.93;;;;;;;;;;5076728;28;20076;-60
2023/08/20 04:45:39;;;;;;;9.15;7.00;;;;;;;;;;5075868;28;20036;-60
2023/08/20 04:48:05;;;;;;;7.60;6.90;;;;;;;;;;5076199;28;20036;-60
2023/08/20 04:50:31;;;;;;;7.78;7.03;;;;;;;;;;5075891;28;20103;-60
2023/08/20 04:52:59;;;;;;;8.38;7.57;;;;;;;;;;5076804;28;20059;-60
2023/08/20 04:55:25;;;;;;;8.38;7.53;;;;;;;;;;5075985;28;20105;-60
2023/08/20 04:57:51;;;;;;;8.45;7.63;;;;;;;;;;5076345;28;20439;-60
2023/08/20 05:00:17;;;;;;;8.50;7.70;;;;;;;;;;5076315;28;20040;-60
2023/08/20 05:02:43;;;;;;;9.52;7.88;;;;;;;;;;5076222;28;20081;-60
2023/08/20 05:05:09;;;;;;;11.98;8.52;;;;;;;;;;5076603;28;20021;-60
2023/08/20 05:07:35;;;;;;;8.25;7.53;;;;;;;;;;5076074;28;20103;-60
2023/08/20 05:10:02;;;;;;;7.47;6.78;;;;;;;;;;5075537;28;20048;-60
2023/08/20 05:12:28;;;;;;;7.82;7.07;;;;;;;;;;5075656;28;20032;-60
2023/08/20 05:14:54;;;;;;;8.18;7.22;;;;;;;;;;5075694;28;20099;-60
2023/08/20 05:17:20;;;;;;;8.05;7.20;;;;;;;;;;5075628;28;20060;-60
2023/08/20 05:19:46;;;;;;;7.10;6.40;;;;;;;;;;5075655;28;20016;-60
2023/08/20 05:22:12;;;;;;;8.57;7.70;;;;;;;;;;5075372;28;20064;-60
2023/08/20 05:24:38;;;;;;;7.68;6.93;;;;;;;;;;5075903;28;20362;-60
2023/08/20 05:27:14;;;;;;;7.40;6.70;;;;;;;;;;5075436;28;20032;-60
2023/08/20 05:29:40;;;;;;;8.15;7.35;;;;;;;;;;5075972;28;20047;-60
2023/08/20 05:32:06;;;;;;;9.13;8.23;;;;;;;;;;5075564;28;20028;-60
2023/08/20 05:34:32;;;;;;;8.15;7.32;;;;;;;;;;5075266;28;20466;-60
2023/08/20 05:36:58;;;;;;;8.98;8.13;;;;;;;;;;5075718;28;20032;-60
2023/08/20 05:39:25;;;;;;;10.15;7.50;;;;;;;;;;5075657;28;20025;-60
2023/08/20 05:41:51;;;;;;;10.20;6.93;;;;;;;;;;5074722;28;20045;-60
2023/08/20 05:44:17;;;;;;;9.20;7.13;;;;;;;;;;5075592;28;20025;-60
2023/08/20 05:46:43;;;;;;;7.18;6.47;;;;;;;;;;5075323;28;20027;-60
2023/08/20 05:49:09;;;;;;;8.77;7.82;;;;;;;;;;5075584;28;20048;-60
2023/08/20 05:51:38;;;;;;;10.85;7.05;;;;;;;;;;5075657;28;20033;-60
2023/08/20 05:54:04;;;;;;;7.88;6.68;;;;;;;;;;5075070;28;20024;-60
2023/08/20 05:56:30;;;;;;;7.03;6.38;;;;;;;;;;5075306;28;20032;-60
2023/08/20 05:58:56;;;;;;;7.40;6.70;;;;;;;;;;5074838;28;20378;-60
2023/08/20 06:01:22;;;;;;;7.15;6.45;;;;;;;;;;5075481;28;20458;-60
2023/08/20 06:03:48;;;;;;;7.75;6.55;;;;;;;;;;5074977;28;20029;-60
2023/08/20 06:06:14;;;;;;;7.80;6.60;;;;;;;;;;5074559;28;20025;-60
2023/08/20 06:08:40;;;;;;;7.72;6.53;;;;;;;;;;5074840;28;20023;-60
2023/08/20 06:11:06;;;;;;;6.90;6.28;;;;;;;;;;5073460;28;20017;-60
2023/08/20 06:13:32;;;;;;;7.65;6.68;;;;;;;;;;5074502;28;20024;-60
2023/08/20 06:15:58;;;;;;;7.68;6.78;;;;;;;;;;5074682;28;20029;-60
2023/08/20 06:18:24;;;;;;;7.78;7.00;;;;;;;;;;5074634;28;20032;-60
2023/08/20 06:20:50;;;;;;;10.95;7.53;;;;;;;;;;5074639;28;20025;-60
2023/08/20 06:23:16;;;;;;;7.38;6.70;;;;;;;;;;5074291;28;20039;-60
2023/08/20 06:25:42;;;;;;;8.80;7.90;;;;;;;;;;5074774;28;20029;-60
2023/08/20 06:28:09;;;;;;;9.05;7.75;;;;;;;;;;5074768;28;20021;-60
2023/08/20 06:30:35;;;;;;;8.40;7.57;;;;;;;;;;5074743;28;20038;-60
2023/08/20 06:33:01;;;;;;;8.35;7.53;;;;;;;;;;5074347;28;20017;-60
2023/08/20 06:35:27;;;;;;;7.88;7.00;;;;;;;;;;5074736;28;20079;-60
2023/08/20 06:37:53;;;;;;;8.15;7.43;;;;;;;;;;5074145;28;20024;-60
2023/08/20 06:40:19;;;;;;;7.63;6.93;;;;;;;;;;5074454;28;20028;-60
2023/08/20 06:42:45;;;;;;;7.93;6.85;;;;;;;;;;5074010;28;20044;-60
2023/08/20 06:45:11;;;;;;;7.88;7.18;;;;;;;;;;5074697;28;20052;-59
2023/08/20 06:47:37;;;;;;;8.73;7.85;;;;;;;;;;5073897;28;20028;-59
2023/08/20 06:50:03;;;;;;;7.78;7.03;;;;;;;;;;5073901;28;20025;-59
2023/08/20 06:52:29;;;;;;;7.25;6.57;;;;;;;;;;5073774;28;20067;-59
2023/08/20 06:54:55;;;;;;;6.93;6.22;;;;;;;;;;5073309;28;20036;-59
2023/08/20 06:57:21;;;;;;;7.70;6.35;;;;;;;;;;5073645;28;20024;-59
2023/08/20 06:59:47;;;;;;;9.02;7.13;;;;;;;;;;5074167;28;20024;-59
2023/08/20 07:02:16;;;;;;;6.68;6.07;;;;;;;;;;5073865;28;20104;-59
2023/08/20 07:04:41;;;;;;;6.90;6.25;;;;;;;;;;5073593;28;20052;-59
2023/08/20 07:07:09;;;;;;;7.68;6.85;;;;;;;;;;5073599;28;20052;-59
2023/08/20 07:09:35;;;;;;;7.40;6.70;;;;;;;;;;5074144;28;20029;-59
2023/08/20 07:12:04;;;;;;;7.60;6.43;;;;;;;;;;5074321;28;20158;-59
2023/08/20 07:14:33;;;;;;;14.50;7.57;;;;;;;;;;5073581;28;20028;-59
2023/08/20 07:17:00;;;;;;;9.65;8.68;;;;;;;;;;5073859;28;20028;-59
2023/08/20 07:19:26;;;;;;;7.32;6.63;;;;;;;;;;5073777;28;20108;-59
2023/08/20 07:21:52;;;;;;;8.23;6.88;;;;;;;;;;5072968;28;20025;-59
2023/08/20 07:24:18;;;;;;;9.73;7.43;;;;;;;;;;5073966;28;20031;-59
2023/08/20 07:26:44;;;;;;;6.97;6.38;;;;;;;;;;5073971;28;20031;-60
2023/08/20 07:29:10;;;;;;;9.52;6.47;;;;;;;;;;5073760;28;20025;-60
2023/08/20 07:31:36;;;;;;;8.10;7.30;;;;;;;;;;5073387;28;20021;-60
2023/08/20 07:34:04;;;;;;;9.00;7.75;;;;;;;;;;5073650;28;20024;-60
2023/08/20 07:36:32;;;;;;;7.13;6.53;;;;;;;;;;5073318;28;20025;-59
2023/08/20 07:38:59;;;;;;;8.00;7.22;;;;;;;;;;5073119;28;20025;-59
2023/08/20 07:41:25;;;;;;;7.78;6.97;;;;;;;;;;5072665;28;20497;-59
2023/08/20 07:43:52;;;;;;;8.52;7.65;;;;;;;;;;5073658;28;20017;-59
2023/08/20 07:46:18;;;;;;;7.90;7.10;;;;;;;;;;5073123;28;20040;-59
2023/08/20 07:48:45;;;;;;;8.73;6.95;;;;;;;;;;5073708;28;20021;-59
2023/08/20 07:51:14;;;;;;;7.60;6.90;;;;;;;;;;5073253;28;20032;-60
2023/08/20 07:53:39;;;;;;;7.60;6.90;;;;;;;;;;5073129;28;20050;-59
2023/08/20 07:56:05;;;;;;;7.72;7.03;;;;;;;;;;5073148;28;20339;-60
2023/08/20 07:58:31;;;;;;;8.48;7.68;;;;;;;;;;5073342;28;20053;-59
2023/08/20 08:00:58;;;;;;;8.45;7.57;;;;;;;;;;5073484;28;20028;-59
2023/08/20 08:03:26;;;;;;;7.90;7.15;;;;;;;;;;5073485;28;20024;-60
2023/08/20 08:05:53;;;;;;;8.52;7.60;;;;;;;;;;5073030;28;20023;-60
2023/08/20 08:08:19;;;;;;;11.02;7.57;;;;;;;;;;5073851;28;20024;-60
2023/08/20 08:10:46;;;;;;;8.30;7.15;;;;;;;;;;5073499;28;20409;-60
2023/08/20 08:13:19;;;;;;;8.85;7.95;;;;;;;;;;5072962;28;20025;-60
2023/08/20 08:15:45;;;;;;;10.45;8.60;;;;;;;;;;5072967;28;20020;-60
2023/08/20 08:18:15;;;;;;;9.50;7.90;;;;;;;;;;5072924;28;20025;-60
2023/08/20 08:20:41;;;;;;;9.10;8.25;;;;;;;;;;5073182;28;20055;-60
2023/08/20 08:23:07;;;;;;;8.25;7.45;;;;;;;;;;5072611;28;20478;-60
2023/08/20 08:25:33;;;;;;;8.88;7.28;;;;;;;;;;5072884;28;20024;-60
2023/08/20 08:27:59;;;;;;;8.63;7.93;;;;;;;;;;5073352;28;20465;-60
2023/08/20 08:30:25;;;;;;;10.32;8.68;;;;;;;;;;5073135;28;20025;-60
2023/08/20 08:32:51;;;;;;;10.30;7.22;;;;;;;;;;5072715;28;20024;-60
2023/08/20 08:35:17;;;;;;;8.45;7.47;;;;;;;;;;5075916;28;20478;-60
2023/08/20 08:37:43;;;;;;;8.30;7.50;;;;;;;;;;5076530;28;20029;-60
2023/08/20 08:40:09;;;;;;;9.35;7.85;;;;;;;;;;5077090;28;20013;-60
2023/08/20 08:42:35;;;;;;;8.77;7.78;;;;;;;;;;5076158;28;20075;-61
2023/08/20 08:45:02;;;;;;;8.13;7.32;;;;;;;;;;5076257;28;20021;-60
2023/08/20 08:47:29;;;;;;;11.00;8.02;;;;;;;;;;5076049;28;20032;-60
2023/08/20 08:49:56;;;;;;;9.35;8.35;;;;;;;;;;5076975;28;20032;-60
2023/08/20 08:52:23;;;;;;;8.55;7.68;;;;;;;;;;5076471;28;20028;-60
2023/08/20 08:54:49;;;;;;;7.97;7.22;;;;;;;;;;5076798;28;20024;-60
2023/08/20 08:57:15;;;;;;;8.75;7.85;;;;;;;;;;5076178;28;20025;-60
2023/08/20 08:59:42;;;;;;;13.40;8.40;;;;;;;;;;5076509;28;20028;-60
2023/08/20 09:02:10;;;;;;;9.40;8.25;;;;;;;;;;5075769;28;20081;-60
2023/08/20 09:04:39;;;;;;;10.35;7.28;;;;;;;;;;5075901;28;20028;-60
2023/08/20 09:07:05;;;;;;;7.40;6.70;;;;;;;;;;5075796;28;20519;-60
2023/08/20 09:09:32;;;;;;;10.30;8.15;;;;;;;;;;5076338;28;20028;-60
2023/08/20 09:11:58;;;;;;;9.15;8.32;;;;;;;;;;5075685;28;20032;-60
2023/08/20 09:14:28;;;;;;;7.60;6.93;;;;;;;;;;5075577;28;20536;-60
2023/08/20 09:16:58;;;;;;;9.43;8.05;;;;;;;;;;5075586;28;20020;-60
2023/08/20 09:19:36;;;;;;;10.23;7.15;;;;;;;;;;5076198;28;20071;-60
2023/08/20 09:22:02;;;;;;;9.00;8.20;;;;;;;;;;5076030;28;20064;-60
2023/08/20 09:24:45;;;;;;;8.23;7.43;;;;;;;;;;5075666;28;20021;-60
2023/08/20 09:27:10;;;;;;;7.80;7.10;;;;;;;;;;5075987;28;20021;-60
2023/08/20 09:29:45;;;;;;;8.30;7.50;;;;;;;;;;5075891;28;20048;-60
2023/08/20 09:32:27;;;;;;;8.20;7.45;;;;;;;;;;5075049;28;20526;-60
2023/08/20 09:34:54;;;;;;;9.98;8.07;;;;;;;;;;5075324;28;20036;-60
2023/08/20 09:37:21;;;;;;;9.07;7.35;;;;;;;;;;5075169;28;20016;-60
2023/08/20 09:39:47;;;;;;;9.20;7.25;;;;;;;;;;5076043;28;20425;-60
2023/08/20 09:42:13;;;;;;;8.25;7.45;;;;;;;;;;5075603;28;20135;-60
2023/08/20 09:44:40;;;;;;;7.90;7.20;;;;;;;;;;5074535;28;20524;-60
2023/08/20 09:47:07;;;;;;;7.95;6.90;;;;;;;;;;5074446;28;20052;-60
2023/08/20 09:49:37;;;;;;;7.90;7.03;;;;;;;;;;5075499;28;20059;-60
2023/08/20 09:52:04;;;;;;;7.63;6.93;;;;;;;;;;5075646;28;20075;-60
2023/08/20 09:54:49;;;;;;;7.60;6.90;;;;;;;;;;5074812;28;20425;-60
2023/08/20 09:57:19;;;;;;;12.77;7.28;;;;;;;;;;5074742;28;20028;-59
2023/08/20 09:59:45;;;;;;;10.68;7.55;;;;;;;;;;5075252;28;20070;-61
2023/08/20 10:02:12;;;;;;;7.05;6.43;;;;;;;;;;5074887;28;20025;-60
2023/08/20 10:04:38;;;;;;;8.43;5.75;;;;;;;;;;5074894;28;20024;-60
2023/08/20 10:07:04;;;;;;;7.57;6.88;;;;;;;;;;5075056;28;20423;-60
2023/08/20 10:09:30;;;;;;;7.05;6.30;;;;;;;;;;5074671;28;20036;-60
2023/08/20 10:11:56;;;;;;;6.93;6.32;;;;;;;;;;5074295;28;20431;-61
2023/08/20 10:14:22;;;;;;;7.57;6.68;;;;;;;;;;5074490;28;20039;-61
2023/08/20 10:16:48;;;;;;;7.60;6.90;;;;;;;;;;5074326;28;20094;-61
2023/08/20 10:19:16;;;;;;;7.40;6.65;;;;;;;;;;5074605;28;20030;-60
2023/08/20 10:21:49;;;;;;;7.85;6.47;;;;;;;;;;5074997;28;20056;-60
2023/08/20 10:24:19;;;;;;;8.38;6.50;;;;;;;;;;5075044;28;20110;-60
2023/08/20 10:26:48;;;;;;;6.63;5.82;;;;;;;;;;5074211;28;20035;-60
2023/08/20 10:29:32;;;;;;;7.33;6.40;;;;;;;;;;5074447;28;20549;-62
2023/08/20 10:31:58;;;;;;;7.85;6.45;;;;;;;;;;5074638;28;20290;-61
2023/08/20 10:34:34;;;;;;;6.95;6.25;;;;;;;;;;5074595;28;20028;-61
2023/08/20 10:37:02;;;;;;;7.20;6.50;;;;;;;;;;5073971;28;20027;-59
2023/08/20 10:39:29;;;;;;;7.57;6.80;;;;;;;;;;5074777;28;20029;-60
2023/08/20 10:42:13;;;;;;;8.60;6.05;;;;;;;;;;5073595;28;20083;-60
2023/08/20 10:44:58;;;;;;;7.40;6.03;;;;;;;;;;5074193;28;20024;-60
2023/08/20 10:47:27;;;;;;;9.10;5.40;;;;;;;;;;5073868;28;20103;-61
2023/08/20 10:49:54;;;;;;;6.88;6.20;;;;;;;;;;5073725;28;20096;-61
2023/08/20 10:52:22;;;;;;;7.10;6.47;;;;;;;;;;5073806;28;20478;-61
2023/08/20 10:54:52;;;;;;;6.57;5.88;;;;;;;;;;5074287;28;20036;-61
2023/08/20 10:57:21;;;;;;;7.00;6.38;;;;;;;;;;5073443;28;20027;-61
2023/08/20 10:59:56;;;;;;;7.78;6.97;;;;;;;;;;5073796;28;20032;-61
2023/08/20 11:02:22;;;;;;;7.45;6.75;;;;;;;;;;5073371;28;20498;-61
2023/08/20 11:04:48;;;;;;;7.38;6.25;;;;;;;;;;5073542;28;20378;-61
2023/08/20 11:07:18;;;;;;;7.68;6.82;;;;;;;;;;5073593;28;20115;-61
2023/08/20 11:09:46;;;;;;;8.02;6.97;;;;;;;;;;5074218;28;20028;-61
2023/08/20 11:12:14;;;;;;;7.65;6.72;;;;;;;;;;5074361;28;20097;-61
2023/08/20 11:14:40;;;;;;;7.15;6.53;;;;;;;;;;5073770;28;20039;-61
2023/08/20 11:17:08;;;;;;;7.30;6.38;;;;;;;;;;5073992;28;20016;-61
2023/08/20 11:19:34;;;;;;;8.48;6.63;;;;;;;;;;5073528;28;20120;-61
2023/08/20 11:21:59;;;;;;;8.52;6.70;;;;;;;;;;5073648;28;20028;-61
2023/08/20 11:24:29;;;;;;;9.45;6.50;;;;;;;;;;5073185;28;20029;-61
2023/08/20 11:26:57;;;;;;;7.20;6.10;;;;;;;;;;5073491;28;20497;-61
2023/08/20 11:29:26;;;;;;;6.38;5.78;;;;;;;;;;5073990;28;20413;-61
2023/08/20 11:31:52;;;;;;;6.53;5.85;;;;;;;;;;5073435;28;20413;-61
2023/08/20 11:34:19;;;;;;;6.43;5.70;;;;;;;;;;5073918;28;20069;-61
2023/08/20 11:36:45;;;;;;;7.07;6.45;;;;;;;;;;5073842;28;20102;-61
2023/08/20 11:39:11;;;;;;;7.43;6.65;;;;;;;;;;5073321;28;20032;-61
2023/08/20 11:41:37;;;;;;;6.43;5.80;;;;;;;;;;5073411;28;20040;-61
2023/08/20 11:44:04;;;;;;;7.32;5.90;;;;;;;;;;5073258;28;20025;-61
2023/08/20 11:46:30;;;;;;;7.03;6.40;;;;;;;;;;5073203;28;20035;-61
2023/08/20 11:49:05;;;;;;;7.88;5.70;;;;;;;;;;5072981;28;20016;-61
2023/08/20 11:51:38;;;;;;;7.13;6.22;;;;;;;;;;5073109;28;20028;-61
2023/08/20 11:54:08;;;;;;;6.40;5.80;;;;;;;;;;5073687;28;20052;-61
2023/08/20 11:56:34;;;;;;;6.90;5.97;;;;;;;;;;5073685;28;20201;-61
2023/08/20 11:59:01;;;;;;;6.60;5.68;;;;;;;;;;5073522;28;20086;-61
2023/08/20 12:01:30;;;;;;;8.20;5.95;;;;;;;;;;5073509;28;20058;-61
2023/08/20 12:04:07;;;;;;;6.38;5.75;;;;;;;;;;5073030;28;20024;-61
2023/08/20 12:06:34;;;;;;;9.40;6.22;;;;;;;;;;5073090;28;20021;-61
2023/08/20 12:09:04;;;;;;;8.75;6.40;;;;;;;;;;5074927;28;20082;-61
2023/08/20 12:11:30;;;;;;;7.38;6.32;;;;;;;;;;5076740;28;20417;-61
2023/08/20 12:13:56;;;;;;;6.60;5.93;;;;;;;;;;5076729;28;20112;-61
2023/08/20 12:16:24;;;;;;;6.78;6.18;;;;;;;;;;5076685;28;20074;-61
2023/08/20 12:18:50;;;;;;;10.30;6.28;;;;;;;;;;5077178;28;20028;-61
2023/08/20 12:21:16;;;;;;;6.28;5.65;;;;;;;;;;5076528;28;20024;-61
2023/08/20 12:23:42;;;;;;;6.97;6.15;;;;;;;;;;5076632;28;20488;-61
2023/08/20 12:26:08;;;;;;;6.53;5.63;;;;;;;;;;5076853;28;20032;-61
2023/08/20 12:28:34;;;;;;;11.98;5.80;;;;;;;;;;5076791;28;20070;-61
2023/08/20 12:31:01;;;;;;;6.20;5.60;;;;;;;;;;5076722;28;20020;-61
2023/08/20 12:33:28;;;;;;;6.63;5.45;;;;;;;;;;5076745;28;20048;-61
2023/08/20 12:35:54;;;;;;;6.70;5.50;;;;;;;;;;5077223;28;20098;-61
2023/08/20 12:38:20;;;;;;;10.40;5.70;;;;;;;;;;5076560;28;20413;-61
2023/08/20 12:40:46;;;;;;;6.25;5.47;;;;;;;;;;5076457;28;20028;-61
2023/08/20 12:43:12;;;;;;;10.32;6.13;;;;;;;;;;5076660;28;20097;-61
2023/08/20 12:45:38;;;;;;;6.88;5.45;;;;;;;;;;5076920;28;20050;-61
2023/08/20 12:48:05;;;;;;;6.25;5.28;;;;;;;;;;5076049;28;20113;-61
2023/08/20 12:50:31;;;;;;;6.30;5.57;;;;;;;;;;5076676;28;20024;-61
2023/08/20 12:52:57;;;;;;;6.00;5.40;;;;;;;;;;5076046;28;20027;-61
2023/08/20 12:55:23;;;;;;;5.82;5.22;;;;;;;;;;5076491;28;20043;-61
2023/08/20 12:57:59;;;;;;;6.85;6.00;;;;;;;;;;5076199;28;20459;-61
2023/08/20 13:00:25;;;;;;;6.95;5.45;;;;;;;;;;5076240;28;20039;-61
2023/08/20 13:02:51;;;;;;;7.60;5.45;;;;;;;;;;5075877;28;20027;-61
2023/08/20 13:05:18;;;;;;;8.27;5.50;;;;;;;;;;5076688;28;20339;-61
2023/08/20 13:07:44;;;;;;;6.30;5.72;;;;;;;;;;5075873;28;20469;-61
2023/08/20 13:10:10;;;;;;;6.82;5.63;;;;;;;;;;5075784;28;20459;-61
2023/08/20 13:12:37;;;;;;;5.55;5.05;;;;;;;;;;5075709;28;20060;-61
2023/08/20 13:15:03;;;;;;;6.70;4.97;;;;;;;;;;5075663;28;20036;-61
2023/08/20 13:17:30;;;;;;;5.78;5.25;;;;;;;;;;5075672;28;20107;-61
2023/08/20 13:19:56;;;;;;;5.88;5.28;;;;;;;;;;5076132;28;20027;-61
2023/08/20 13:22:22;;;;;;;6.43;5.20;;;;;;;;;;5075489;28;20168;-61
2023/08/20 13:24:48;;;;;;;6.53;5.60;;;;;;;;;;5076013;28;20036;-61
2023/08/20 13:27:14;;;;;;;5.55;5.05;;;;;;;;;;5075724;28;20405;-61
2023/08/20 13:29:44;;;;;;;6.50;5.68;;;;;;;;;;5076059;28;20098;-61
2023/08/20 13:32:10;;;;;;;5.75;5.25;;;;;;;;;;5075326;28;20459;-61
2023/08/20 13:34:36;;;;;;;6.15;4.88;;;;;;;;;;5075331;28;20028;-61
2023/08/20 13:37:02;;;;;;;5.95;4.93;;;;;;;;;;5075260;28;20020;-61
2023/08/20 13:39:27;;;;;;;5.78;5.22;;;;;;;;;;5075341;28;20102;-61
2023/08/20 13:41:53;;;;;;;6.05;4.90;;;;;;;;;;5075559;28;20134;-61
2023/08/20 13:44:20;;;;;;;5.68;5.18;;;;;;;;;;5075295;28;20019;-61
2023/08/20 13:46:46;;;;;;;7.05;4.57;;;;;;;;;;5075558;28;20020;-61
2023/08/20 13:49:12;;;;;;;8.35;5.03;;;;;;;;;;5075188;28;20078;-61
2023/08/20 13:51:38;;;;;;;6.20;5.60;;;;;;;;;;5075219;28;20025;-61
2023/08/20 13:54:07;;;;;;;5.57;5.03;;;;;;;;;;5074980;28;20111;-61
2023/08/20 13:56:33;;;;;;;6.47;4.95;;;;;;;;;;5074563;28;20021;-61
2023/08/20 13:58:59;;;;;;;6.20;4.80;;;;;;;;;;5075376;28;20078;-61
2023/08/20 14:01:25;;;;;;;5.32;4.82;;;;;;;;;;5074636;28;20036;-61
2023/08/20 14:03:51;;;;;;;10.27;4.40;;;;;;;;;;5075117;28;20462;-61
2023/08/20 14:06:17;;;;;;;5.75;5.25;;;;;;;;;;5074641;28;20050;-62
2023/08/20 14:08:43;;;;;;;5.75;5.18;;;;;;;;;;5075187;28;20024;-62
2023/08/20 14:11:09;;;;;;;4.97;4.32;;;;;;;;;;5074516;28;20024;-61
2023/08/20 14:13:35;;;;;;;6.30;5.55;;;;;;;;;;5075372;28;20073;-61
2023/08/20 14:16:02;;;;;;;5.88;5.05;;;;;;;;;;5074712;28;20107;-61
2023/08/20 14:18:28;;;;;;;6.55;4.25;;;;;;;;;;5074363;28;20099;-61
2023/08/20 14:20:54;;;;;;;6.50;4.78;;;;;;;;;;5074610;28;20151;-61
2023/08/20 14:23:20;;;;;;;5.65;5.05;;;;;;;;;;5074286;28;20032;-61
2023/08/20 14:25:46;;;;;;;5.60;4.93;;;;;;;;;;5074270;28;20028;-61
2023/08/20 14:28:12;;;;;;;5.45;4.53;;;;;;;;;;5074205;28;20020;-61
2023/08/20 14:30:38;;;;;;;5.13;4.57;;;;;;;;;;5074470;28;20028;-61
2023/08/20 14:33:04;;;;;;;7.18;5.22;;;;;;;;;;5073642;28;20078;-61
2023/08/20 14:35:31;;;;;;;5.28;4.78;;;;;;;;;;5074201;28;20031;-61
2023/08/20 14:37:57;;;;;;;8.70;5.05;;;;;;;;;;5074015;28;20071;-61
2023/08/20 14:40:23;;;;;;;8.35;4.97;;;;;;;;;;5074283;28;20047;-61
2023/08/20 14:42:49;;;;;;;5.40;4.90;;;;;;;;;;5073742;28;20045;-61